Albertslund, Denmark
Current Conditions -  °F | °C
As of 2:20 PM on Sunday 23 Nov 2014 (Local Time) from EKRK Reporting Station
Light Rain Light Rain  
Wind Chill: 37°   Ceiling: 1500
Heat Index: 45°   Visibility: 3mi
Dew Point: 43°   Wind: 20mph
Humidity: 93%   Direction: 130°SE
Pressure: 30.15"   Gusts: NA
Location:  55.66°N, 12.36°E
Report Text: EKRK 231320Z 13017KT 5000 -RA SCT009 BKN015 07/06 Q1021
Loading
Personal Weather Stations






























Interactive Weather Map New forecast layout! Learn more

10-Day Weather Forecast

Advertisements
Track Severe Weather on mobile